Severy, Kansas
Current Conditions -  °F | °C
As of 11:55 PM on Wednesday 22 Oct 2014 (Local Time) from KEQA Reporting Station
Moderate Rain Moderate Rain  
Wind Chill: 64°   Ceiling: 10000
Heat Index: 64°   Visibility: 10mi
Dew Point: 61°   Wind: 6mph
Humidity: 88%   Direction: 210°SSW
Pressure: 30.1"   Gusts: NA
Location:  37.62°N, 96.23°W
Report Text: KEQA 230455Z AUTO 21005KT 10SM RA SCT050 SCT070 OVC100 18/16 A3010 RMK AO2
Loading
Personal Weather Stations






























Interactive Weather Map
Tropical Storm Tracking
New forecast layout! Learn more

10-Day Weather Forecast

Advertisements
Track Severe Weather on mobile